sensor_id;sensor_type;location;lat;lon;timestamp;P1;durP1;ratioP1;P2;durP2;ratioP2
15340;SDS011;7770;52.158;5.372;2023-07-29T00:01:04;4.70;;;2.87;;
15340;SDS011;7770;52.158;5.372;2023-07-29T00:03:50;4.00;;;2.80;;
15340;SDS011;7770;52.158;5.372;2023-07-29T00:06:36;4.90;;;2.80;;
15340;SDS011;7770;52.158;5.372;2023-07-29T00:09:22;3.17;;;2.80;;
15340;SDS011;7770;52.158;5.372;2023-07-29T00:12:08;3.50;;;2.70;;
15340;SDS011;7770;52.158;5.372;2023-07-29T00:14:54;4.43;;;3.17;;
15340;SDS011;7770;52.158;5.372;2023-07-29T00:17:40;4.17;;;2.93;;
15340;SDS011;7770;52.158;5.372;2023-07-29T00:20:26;4.57;;;2.83;;
15340;SDS011;7770;52.158;5.372;2023-07-29T00:23:12;3.50;;;3.00;;
15340;SDS011;7770;52.158;5.372;2023-07-29T00:25:58;4.23;;;2.93;;
15340;SDS011;7770;52.158;5.372;2023-07-29T00:28:44;4.27;;;3.00;;
15340;SDS011;7770;52.158;5.372;2023-07-29T00:31:30;4.70;;;3.10;;
15340;SDS011;7770;52.158;5.372;2023-07-29T00:34:16;5.20;;;3.20;;
15340;SDS011;7770;52.158;5.372;2023-07-29T00:37:04;6.57;;;3.10;;
15340;SDS011;7770;52.158;5.372;2023-07-29T00:39:51;4.70;;;3.30;;
15340;SDS011;7770;52.158;5.372;2023-07-29T00:42:37;4.23;;;3.30;;
15340;SDS011;7770;52.158;5.372;2023-07-29T00:45:23;4.57;;;3.10;;
15340;SDS011;7770;52.158;5.372;2023-07-29T00:48:12;5.23;;;3.40;;
15340;SDS011;7770;52.158;5.372;2023-07-29T00:50:58;5.73;;;3.63;;
15340;SDS011;7770;52.158;5.372;2023-07-29T00:53:44;4.47;;;3.50;;
15340;SDS011;7770;52.158;5.372;2023-07-29T00:56:30;5.47;;;3.33;;
15340;SDS011;7770;52.158;5.372;2023-07-29T00:59:16;5.03;;;3.40;;
15340;SDS011;7770;52.158;5.372;2023-07-29T01:02:02;4.70;;;3.23;;
15340;SDS011;7770;52.158;5.372;2023-07-29T01:04:53;6.07;;;3.53;;
15340;SDS011;7770;52.158;5.372;2023-07-29T01:07:49;6.63;;;3.23;;
15340;SDS011;7770;52.158;5.372;2023-07-29T01:13:53;6.20;;;3.43;;
15340;SDS011;7770;52.158;5.372;2023-07-29T01:17:00;3.50;;;3.20;;
15340;SDS011;7770;52.158;5.372;2023-07-29T01:19:59;7.10;;;4.17;;
15340;SDS011;7770;52.158;5.372;2023-07-29T01:22:53;7.70;;;3.97;;
15340;SDS011;7770;52.158;5.372;2023-07-29T01:25:39;5.43;;;3.87;;
15340;SDS011;7770;52.158;5.372;2023-07-29T01:28:26;5.53;;;4.00;;
15340;SDS011;7770;52.158;5.372;2023-07-29T01:31:17;6.03;;;4.30;;
15340;SDS011;7770;52.158;5.372;2023-07-29T01:34:14;6.73;;;4.60;;
15340;SDS011;7770;52.158;5.372;2023-07-29T01:37:12;7.60;;;5.03;;
15340;SDS011;7770;52.158;5.372;2023-07-29T01:40:06;7.60;;;5.30;;
15340;SDS011;7770;52.158;5.372;2023-07-29T01:42:54;6.47;;;4.83;;
15340;SDS011;7770;52.158;5.372;2023-07-29T01:45:40;10.97;;;5.90;;
15340;SDS011;7770;52.158;5.372;2023-07-29T01:48:27;8.97;;;5.60;;
15340;SDS011;7770;52.158;5.372;2023-07-29T01:51:15;7.53;;;6.43;;
15340;SDS011;7770;52.158;5.372;2023-07-29T01:54:01;8.80;;;6.53;;
15340;SDS011;7770;52.158;5.372;2023-07-29T01:56:48;10.10;;;6.97;;
15340;SDS011;7770;52.158;5.372;2023-07-29T01:59:36;7.00;;;6.17;;
15340;SDS011;7770;52.158;5.372;2023-07-29T02:02:22;9.47;;;6.77;;
15340;SDS011;7770;52.158;5.372;2023-07-29T02:05:08;8.07;;;6.83;;
15340;SDS011;7770;52.158;5.372;2023-07-29T02:07:54;11.00;;;7.07;;
15340;SDS011;7770;52.158;5.372;2023-07-29T02:10:40;10.73;;;7.20;;
15340;SDS011;7770;52.158;5.372;2023-07-29T02:13:27;10.50;;;7.40;;
15340;SDS011;7770;52.158;5.372;2023-07-29T02:16:13;9.47;;;8.00;;
15340;SDS011;7770;52.158;5.372;2023-07-29T02:19:00;10.23;;;7.73;;
15340;SDS011;7770;52.158;5.372;2023-07-29T02:21:46;11.67;;;7.40;;
15340;SDS011;7770;52.158;5.372;2023-07-29T02:24:32;12.63;;;7.93;;
15340;SDS011;7770;52.158;5.372;2023-07-29T02:27:18;9.83;;;8.47;;
15340;SDS011;7770;52.158;5.372;2023-07-29T02:30:04;9.60;;;8.33;;
15340;SDS011;7770;52.158;5.372;2023-07-29T02:32:51;11.03;;;8.27;;
15340;SDS011;7770;52.158;5.372;2023-07-29T02:35:37;10.93;;;8.20;;
15340;SDS011;7770;52.158;5.372;2023-07-29T02:38:23;13.23;;;9.03;;
15340;SDS011;7770;52.158;5.372;2023-07-29T02:41:09;11.30;;;9.10;;
15340;SDS011;7770;52.158;5.372;2023-07-29T02:43:57;11.47;;;9.20;;
15340;SDS011;7770;52.158;5.372;2023-07-29T02:46:44;11.03;;;8.80;;
15340;SDS011;7770;52.158;5.372;2023-07-29T02:49:30;11.50;;;9.13;;
15340;SDS011;7770;52.158;5.372;2023-07-29T02:52:16;14.83;;;9.13;;
15340;SDS011;7770;52.158;5.372;2023-07-29T02:55:02;12.77;;;9.37;;
15340;SDS011;7770;52.158;5.372;2023-07-29T02:57:48;15.53;;;9.30;;
15340;SDS011;7770;52.158;5.372;2023-07-29T03:00:34;11.07;;;8.27;;
15340;SDS011;7770;52.158;5.372;2023-07-29T03:03:21;9.97;;;8.47;;
15340;SDS011;7770;52.158;5.372;2023-07-29T03:06:07;10.60;;;8.10;;
15340;SDS011;7770;52.158;5.372;2023-07-29T03:08:56;9.47;;;8.03;;
15340;SDS011;7770;52.158;5.372;2023-07-29T03:11:42;9.77;;;8.20;;
15340;SDS011;7770;52.158;5.372;2023-07-29T03:14:28;11.83;;;7.93;;
15340;SDS011;7770;52.158;5.372;2023-07-29T03:17:14;9.93;;;7.40;;
15340;SDS011;7770;52.158;5.372;2023-07-29T03:20:00;9.53;;;7.60;;
15340;SDS011;7770;52.158;5.372;2023-07-29T03:22:46;9.03;;;7.13;;
15340;SDS011;7770;52.158;5.372;2023-07-29T03:25:32;8.70;;;7.13;;
15340;SDS011;7770;52.158;5.372;2023-07-29T03:28:18;9.57;;;7.13;;
15340;SDS011;7770;52.158;5.372;2023-07-29T03:31:04;10.57;;;7.30;;
15340;SDS011;7770;52.158;5.372;2023-07-29T03:33:50;7.70;;;6.40;;
15340;SDS011;7770;52.158;5.372;2023-07-29T03:36:36;6.90;;;6.20;;
15340;SDS011;7770;52.158;5.372;2023-07-29T03:39:22;9.13;;;6.30;;
15340;SDS011;7770;52.158;5.372;2023-07-29T03:42:08;9.23;;;7.07;;
15340;SDS011;7770;52.158;5.372;2023-07-29T03:44:54;6.97;;;6.20;;
15340;SDS011;7770;52.158;5.372;2023-07-29T03:47:40;7.07;;;6.30;;
15340;SDS011;7770;52.158;5.372;2023-07-29T03:50:26;6.63;;;5.90;;
15340;SDS011;7770;52.158;5.372;2023-07-29T03:53:14;10.07;;;6.20;;
15340;SDS011;7770;52.158;5.372;2023-07-29T03:56:00;8.23;;;6.00;;
15340;SDS011;7770;52.158;5.372;2023-07-29T03:58:46;8.67;;;5.53;;
15340;SDS011;7770;52.158;5.372;2023-07-29T04:01:33;8.10;;;5.40;;
15340;SDS011;7770;52.158;5.372;2023-07-29T04:04:19;9.07;;;5.50;;
15340;SDS011;7770;52.158;5.372;2023-07-29T04:07:05;7.93;;;5.73;;
15340;SDS011;7770;52.158;5.372;2023-07-29T04:09:51;6.40;;;5.60;;
15340;SDS011;7770;52.158;5.372;2023-07-29T04:12:37;7.40;;;6.07;;
15340;SDS011;7770;52.158;5.372;2023-07-29T04:15:23;10.23;;;6.67;;
15340;SDS011;7770;52.158;5.372;2023-07-29T04:18:09;7.70;;;6.33;;
15340;SDS011;7770;52.158;5.372;2023-07-29T04:20:55;8.60;;;6.43;;
15340;SDS011;7770;52.158;5.372;2023-07-29T04:23:41;7.50;;;6.77;;
15340;SDS011;7770;52.158;5.372;2023-07-29T04:26:27;8.23;;;6.90;;
15340;SDS011;7770;52.158;5.372;2023-07-29T04:29:14;7.50;;;6.37;;
15340;SDS011;7770;52.158;5.372;2023-07-29T04:32:00;7.37;;;6.33;;
15340;SDS011;7770;52.158;5.372;2023-07-29T04:34:46;7.27;;;5.90;;
15340;SDS011;7770;52.158;5.372;2023-07-29T04:37:32;7.33;;;6.00;;
15340;SDS011;7770;52.158;5.372;2023-07-29T04:40:18;8.40;;;5.60;;
15340;SDS011;7770;52.158;5.372;2023-07-29T04:43:04;6.30;;;5.70;;
15340;SDS011;7770;52.158;5.372;2023-07-29T04:45:50;7.47;;;5.73;;
15340;SDS011;7770;52.158;5.372;2023-07-29T04:48:36;6.83;;;5.70;;
15340;SDS011;7770;52.158;5.372;2023-07-29T04:51:23;6.00;;;5.40;;
15340;SDS011;7770;52.158;5.372;2023-07-29T04:54:10;6.40;;;5.47;;
15340;SDS011;7770;52.158;5.372;2023-07-29T04:56:56;6.07;;;5.30;;
15340;SDS011;7770;52.158;5.372;2023-07-29T04:59:42;5.73;;;5.00;;
15340;SDS011;7770;52.158;5.372;2023-07-29T05:02:28;5.93;;;5.33;;
15340;SDS011;7770;52.158;5.372;2023-07-29T05:05:14;7.27;;;4.87;;
15340;SDS011;7770;52.158;5.372;2023-07-29T05:08:00;7.57;;;4.93;;
15340;SDS011;7770;52.158;5.372;2023-07-29T05:10:49;5.90;;;4.47;;
15340;SDS011;7770;52.158;5.372;2023-07-29T05:13:36;5.37;;;4.37;;
15340;SDS011;7770;52.158;5.372;2023-07-29T05:16:22;5.57;;;4.60;;
15340;SDS011;7770;52.158;5.372;2023-07-29T05:19:08;7.23;;;4.87;;
15340;SDS011;7770;52.158;5.372;2023-07-29T05:21:55;5.73;;;5.13;;
15340;SDS011;7770;52.158;5.372;2023-07-29T05:24:42;5.70;;;4.93;;
15340;SDS011;7770;52.158;5.372;2023-07-29T05:27:28;6.83;;;4.73;;
15340;SDS011;7770;52.158;5.372;2023-07-29T05:30:14;7.77;;;5.10;;
15340;SDS011;7770;52.158;5.372;2023-07-29T05:33:00;6.27;;;4.90;;
15340;SDS011;7770;52.158;5.372;2023-07-29T05:35:46;7.27;;;5.23;;
15340;SDS011;7770;52.158;5.372;2023-07-29T05:38:32;7.20;;;4.90;;
15340;SDS011;7770;52.158;5.372;2023-07-29T05:41:18;6.90;;;5.30;;
15340;SDS011;7770;52.158;5.372;2023-07-29T05:44:05;5.30;;;4.80;;
15340;SDS011;7770;52.158;5.372;2023-07-29T05:46:51;8.47;;;5.70;;
15340;SDS011;7770;52.158;5.372;2023-07-29T05:49:37;6.00;;;5.40;;
15340;SDS011;7770;52.158;5.372;2023-07-29T05:52:23;6.87;;;5.10;;
15340;SDS011;7770;52.158;5.372;2023-07-29T05:55:09;7.23;;;5.23;;
15340;SDS011;7770;52.158;5.372;2023-07-29T05:57:55;8.30;;;5.17;;
15340;SDS011;7770;52.158;5.372;2023-07-29T06:00:41;6.53;;;5.90;;
15340;SDS011;7770;52.158;5.372;2023-07-29T06:03:27;6.07;;;5.47;;
15340;SDS011;7770;52.158;5.372;2023-07-29T06:06:13;6.90;;;5.77;;
15340;SDS011;7770;52.158;5.372;2023-07-29T06:08:59;8.33;;;6.00;;
15340;SDS011;7770;52.158;5.372;2023-07-29T06:11:45;9.07;;;6.20;;
15340;SDS011;7770;52.158;5.372;2023-07-29T06:14:31;8.10;;;5.60;;
15340;SDS011;7770;52.158;5.372;2023-07-29T06:17:17;8.43;;;6.07;;
15340;SDS011;7770;52.158;5.372;2023-07-29T06:20:03;9.63;;;6.20;;
15340;SDS011;7770;52.158;5.372;2023-07-29T06:22:51;8.60;;;6.40;;
15340;SDS011;7770;52.158;5.372;2023-07-29T06:25:37;6.57;;;5.90;;
15340;SDS011;7770;52.158;5.372;2023-07-29T06:28:23;7.03;;;5.43;;
15340;SDS011;7770;52.158;5.372;2023-07-29T06:31:09;7.70;;;5.87;;
15340;SDS011;7770;52.158;5.372;2023-07-29T06:33:55;6.47;;;5.50;;
15340;SDS011;7770;52.158;5.372;2023-07-29T06:36:41;7.07;;;5.57;;
15340;SDS011;7770;52.158;5.372;2023-07-29T06:39:27;8.10;;;6.17;;
15340;SDS011;7770;52.158;5.372;2023-07-29T06:42:13;6.97;;;6.33;;
15340;SDS011;7770;52.158;5.372;2023-07-29T06:44:59;8.07;;;6.33;;
15340;SDS011;7770;52.158;5.372;2023-07-29T06:47:45;7.47;;;6.13;;
15340;SDS011;7770;52.158;5.372;2023-07-29T06:50:31;6.97;;;6.23;;
15340;SDS011;7770;52.158;5.372;2023-07-29T06:53:17;8.10;;;6.60;;
15340;SDS011;7770;52.158;5.372;2023-07-29T06:56:03;7.40;;;6.70;;
15340;SDS011;7770;52.158;5.372;2023-07-29T06:58:50;7.33;;;6.40;;
15340;SDS011;7770;52.158;5.372;2023-07-29T07:01:36;10.47;;;7.67;;
15340;SDS011;7770;52.158;5.372;2023-07-29T07:04:22;10.03;;;7.00;;
15340;SDS011;7770;52.158;5.372;2023-07-29T07:07:08;9.20;;;8.17;;
15340;SDS011;7770;52.158;5.372;2023-07-29T07:09:53;9.03;;;8.13;;
15340;SDS011;7770;52.158;5.372;2023-07-29T07:12:40;8.90;;;8.03;;
15340;SDS011;7770;52.158;5.372;2023-07-29T07:15:26;9.00;;;7.50;;
15340;SDS011;7770;52.158;5.372;2023-07-29T07:18:12;7.83;;;7.10;;
15340;SDS011;7770;52.158;5.372;2023-07-29T07:20:58;9.17;;;7.17;;
15340;SDS011;7770;52.158;5.372;2023-07-29T07:23:44;7.63;;;6.83;;
15340;SDS011;7770;52.158;5.372;2023-07-29T07:26:30;8.33;;;7.53;;
15340;SDS011;7770;52.158;5.372;2023-07-29T07:29:16;8.50;;;7.70;;
15340;SDS011;7770;52.158;5.372;2023-07-29T07:32:02;9.43;;;8.50;;
15340;SDS011;7770;52.158;5.372;2023-07-29T07:34:48;8.63;;;7.80;;
15340;SDS011;7770;52.158;5.372;2023-07-29T07:37:34;8.00;;;7.20;;
15340;SDS011;7770;52.158;5.372;2023-07-29T07:40:20;9.10;;;8.20;;
15340;SDS011;7770;52.158;5.372;2023-07-29T07:43:06;9.27;;;8.33;;
15340;SDS011;7770;52.158;5.372;2023-07-29T07:45:59;9.53;;;8.57;;
15340;SDS011;7770;52.158;5.372;2023-07-29T07:48:46;9.33;;;8.33;;
15340;SDS011;7770;52.158;5.372;2023-07-29T07:51:32;9.23;;;8.37;;
15340;SDS011;7770;52.158;5.372;2023-07-29T07:54:18;10.20;;;8.00;;
15340;SDS011;7770;52.158;5.372;2023-07-29T07:57:04;8.40;;;7.60;;
15340;SDS011;7770;52.158;5.372;2023-07-29T07:59:51;8.63;;;7.93;;
15340;SDS011;7770;52.158;5.372;2023-07-29T08:02:37;8.80;;;7.90;;
15340;SDS011;7770;52.158;5.372;2023-07-29T08:05:23;8.70;;;8.00;;
15340;SDS011;7770;52.158;5.372;2023-07-29T08:08:09;8.90;;;8.10;;
15340;SDS011;7770;52.158;5.372;2023-07-29T08:10:58;8.77;;;7.83;;
15340;SDS011;7770;52.158;5.372;2023-07-29T08:13:44;8.17;;;6.70;;
15340;SDS011;7770;52.158;5.372;2023-07-29T08:16:30;7.40;;;6.17;;
15340;SDS011;7770;52.158;5.372;2023-07-29T08:19:16;7.07;;;6.40;;
15340;SDS011;7770;52.158;5.372;2023-07-29T08:22:02;9.17;;;6.63;;
15340;SDS011;7770;52.158;5.372;2023-07-29T08:24:49;7.40;;;6.70;;
15340;SDS011;7770;52.158;5.372;2023-07-29T08:27:35;6.37;;;5.77;;
15340;SDS011;7770;52.158;5.372;2023-07-29T08:30:21;6.70;;;6.10;;
15340;SDS011;7770;52.158;5.372;2023-07-29T08:33:07;6.43;;;5.50;;
15340;SDS011;7770;52.158;5.372;2023-07-29T08:35:53;7.60;;;5.90;;
15340;SDS011;7770;52.158;5.372;2023-07-29T08:38:40;6.47;;;5.90;;
15340;SDS011;7770;52.158;5.372;2023-07-29T08:41:27;5.63;;;5.10;;
15340;SDS011;7770;52.158;5.372;2023-07-29T08:44:21;5.60;;;5.10;;
15340;SDS011;7770;52.158;5.372;2023-07-29T08:47:09;5.90;;;5.40;;
15340;SDS011;7770;52.158;5.372;2023-07-29T08:49:55;6.50;;;5.87;;
15340;SDS011;7770;52.158;5.372;2023-07-29T08:52:41;8.87;;;6.47;;
15340;SDS011;7770;52.158;5.372;2023-07-29T08:55:29;7.50;;;6.90;;
15340;SDS011;7770;52.158;5.372;2023-07-29T08:58:16;7.93;;;7.10;;
15340;SDS011;7770;52.158;5.372;2023-07-29T09:01:03;7.50;;;6.90;;
15340;SDS011;7770;52.158;5.372;2023-07-29T09:03:49;8.30;;;6.60;;
15340;SDS011;7770;52.158;5.372;2023-07-29T09:06:35;6.90;;;6.20;;
15340;SDS011;7770;52.158;5.372;2023-07-29T09:09:24;8.07;;;7.43;;
15340;SDS011;7770;52.158;5.372;2023-07-29T09:12:11;7.77;;;7.10;;
15340;SDS011;7770;52.158;5.372;2023-07-29T09:14:57;8.07;;;7.27;;
15340;SDS011;7770;52.158;5.372;2023-07-29T09:17:43;6.13;;;5.53;;
15340;SDS011;7770;52.158;5.372;2023-07-29T09:20:29;5.67;;;5.17;;
15340;SDS011;7770;52.158;5.372;2023-07-29T09:23:15;5.97;;;5.30;;
15340;SDS011;7770;52.158;5.372;2023-07-29T09:26:02;5.60;;;5.00;;
15340;SDS011;7770;52.158;5.372;2023-07-29T09:28:53;5.60;;;5.10;;
15340;SDS011;7770;52.158;5.372;2023-07-29T09:31:44;5.33;;;4.90;;
15340;SDS011;7770;52.158;5.372;2023-07-29T09:34:30;5.73;;;5.00;;
15340;SDS011;7770;52.158;5.372;2023-07-29T09:37:22;5.97;;;5.43;;
15340;SDS011;7770;52.158;5.372;2023-07-29T09:40:13;5.87;;;5.20;;
15340;SDS011;7770;52.158;5.372;2023-07-29T09:43:01;6.53;;;5.57;;
15340;SDS011;7770;52.158;5.372;2023-07-29T09:45:47;6.43;;;5.77;;
15340;SDS011;7770;52.158;5.372;2023-07-29T09:48:34;6.93;;;6.10;;
15340;SDS011;7770;52.158;5.372;2023-07-29T09:51:22;6.47;;;5.87;;
15340;SDS011;7770;52.158;5.372;2023-07-29T09:54:08;7.50;;;6.80;;
15340;SDS011;7770;52.158;5.372;2023-07-29T09:56:56;7.13;;;6.53;;
15340;SDS011;7770;52.158;5.372;2023-07-29T09:59:42;9.20;;;7.83;;
15340;SDS011;7770;52.158;5.372;2023-07-29T10:02:28;9.03;;;8.10;;
15340;SDS011;7770;52.158;5.372;2023-07-29T10:05:16;8.90;;;8.10;;
15340;SDS011;7770;52.158;5.372;2023-07-29T10:08:02;7.97;;;7.27;;
15340;SDS011;7770;52.158;5.372;2023-07-29T10:10:50;6.97;;;6.47;;
15340;SDS011;7770;52.158;5.372;2023-07-29T10:13:37;6.50;;;5.90;;
15340;SDS011;7770;52.158;5.372;2023-07-29T10:16:24;5.90;;;5.50;;
15340;SDS011;7770;52.158;5.372;2023-07-29T10:19:10;5.87;;;5.37;;
15340;SDS011;7770;52.158;5.372;2023-07-29T10:22:01;5.57;;;5.10;;
15340;SDS011;7770;52.158;5.372;2023-07-29T10:24:49;6.13;;;5.53;;
15340;SDS011;7770;52.158;5.372;2023-07-29T10:27:42;5.70;;;5.20;;
15340;SDS011;7770;52.158;5.372;2023-07-29T10:30:33;5.87;;;5.37;;
15340;SDS011;7770;52.158;5.372;2023-07-29T10:33:19;6.37;;;5.77;;
15340;SDS011;7770;52.158;5.372;2023-07-29T10:36:05;7.70;;;6.00;;
15340;SDS011;7770;52.158;5.372;2023-07-29T10:38:52;7.23;;;6.53;;
15340;SDS011;7770;52.158;5.372;2023-07-29T10:41:57;9.47;;;8.00;;
15340;SDS011;7770;52.158;5.372;2023-07-29T10:44:47;10.53;;;9.40;;
15340;SDS011;7770;52.158;5.372;2023-07-29T10:47:35;9.70;;;8.90;;
15340;SDS011;7770;52.158;5.372;2023-07-29T10:50:21;9.77;;;8.87;;
15340;SDS011;7770;52.158;5.372;2023-07-29T10:53:08;12.20;;;11.00;;
15340;SDS011;7770;52.158;5.372;2023-07-29T10:55:54;11.40;;;10.40;;
15340;SDS011;7770;52.158;5.372;2023-07-29T10:58:41;12.53;;;11.40;;
15340;SDS011;7770;52.158;5.372;2023-07-29T11:01:31;12.87;;;11.77;;
15340;SDS011;7770;52.158;5.372;2023-07-29T11:09:59;11.30;;;10.40;;
15340;SDS011;7770;52.158;5.372;2023-07-29T11:12:51;10.07;;;9.30;;
15340;SDS011;7770;52.158;5.372;2023-07-29T11:15:39;9.23;;;8.53;;
15340;SDS011;7770;52.158;5.372;2023-07-29T11:18:26;7.03;;;6.27;;
15340;SDS011;7770;52.158;5.372;2023-07-29T11:21:17;5.60;;;5.10;;
15340;SDS011;7770;52.158;5.372;2023-07-29T11:24:03;5.30;;;4.90;;
15340;SDS011;7770;52.158;5.372;2023-07-29T11:26:49;4.20;;;3.80;;
15340;SDS011;7770;52.158;5.372;2023-07-29T11:29:35;5.20;;;3.73;;
15340;SDS011;7770;52.158;5.372;2023-07-29T11:32:21;3.70;;;3.20;;
15340;SDS011;7770;52.158;5.372;2023-07-29T11:37:56;3.60;;;3.30;;
15340;SDS011;7770;52.158;5.372;2023-07-29T11:40:42;4.07;;;3.50;;
15340;SDS011;7770;52.158;5.372;2023-07-29T11:43:28;3.60;;;3.30;;
15340;SDS011;7770;52.158;5.372;2023-07-29T11:46:14;4.50;;;3.60;;
15340;SDS011;7770;52.158;5.372;2023-07-29T11:49:00;3.77;;;3.20;;
15340;SDS011;7770;52.158;5.372;2023-07-29T11:51:46;3.30;;;3.00;;
15340;SDS011;7770;52.158;5.372;2023-07-29T11:54:33;3.27;;;2.97;;
15340;SDS011;7770;52.158;5.372;2023-07-29T11:57:20;2.67;;;2.47;;
15340;SDS011;7770;52.158;5.372;2023-07-29T12:00:07;3.07;;;2.50;;
15340;SDS011;7770;52.158;5.372;2023-07-29T12:02:55;3.13;;;2.77;;
15340;SDS011;7770;52.158;5.372;2023-07-29T12:05:42;4.13;;;2.70;;
15340;SDS011;7770;52.158;5.372;2023-07-29T12:08:28;2.77;;;2.57;;
15340;SDS011;7770;52.158;5.372;2023-07-29T12:11:15;4.37;;;2.87;;
15340;SDS011;7770;52.158;5.372;2023-07-29T12:14:01;3.20;;;2.50;;
15340;SDS011;7770;52.158;5.372;2023-07-29T12:16:47;3.25;;;2.60;;
15340;SDS011;7770;52.158;5.372;2023-07-29T12:19:35;2.50;;;2.30;;
15340;SDS011;7770;52.158;5.372;2023-07-29T12:22:23;2.60;;;2.40;;
15340;SDS011;7770;52.158;5.372;2023-07-29T12:25:09;3.60;;;2.40;;
15340;SDS011;7770;52.158;5.372;2023-07-29T12:27:55;2.73;;;2.53;;
15340;SDS011;7770;52.158;5.372;2023-07-29T12:30:47;2.80;;;2.60;;
15340;SDS011;7770;52.158;5.372;2023-07-29T12:33:37;3.33;;;2.40;;
15340;SDS011;7770;52.158;5.372;2023-07-29T12:36:28;3.00;;;2.70;;
15340;SDS011;7770;52.158;5.372;2023-07-29T12:39:35;2.50;;;2.30;;
15340;SDS011;7770;52.158;5.372;2023-07-29T12:42:27;2.50;;;2.30;;
15340;SDS011;7770;52.158;5.372;2023-07-29T12:45:14;2.70;;;2.50;;
15340;SDS011;7770;52.158;5.372;2023-07-29T12:48:02;3.23;;;3.00;;
15340;SDS011;7770;52.158;5.372;2023-07-29T12:50:48;3.80;;;2.70;;
15340;SDS011;7770;52.158;5.372;2023-07-29T12:53:34;3.40;;;3.10;;
15340;SDS011;7770;52.158;5.372;2023-07-29T12:56:20;3.13;;;2.93;;
15340;SDS011;7770;52.158;5.372;2023-07-29T12:59:06;3.50;;;3.10;;
15340;SDS011;7770;52.158;5.372;2023-07-29T13:01:52;3.40;;;3.10;;
15340;SDS011;7770;52.158;5.372;2023-07-29T13:04:38;3.70;;;3.40;;
15340;SDS011;7770;52.158;5.372;2023-07-29T13:07:24;4.93;;;3.30;;
15340;SDS011;7770;52.158;5.372;2023-07-29T13:10:10;3.40;;;3.10;;
15340;SDS011;7770;52.158;5.372;2023-07-29T13:12:56;3.80;;;3.50;;
15340;SDS011;7770;52.158;5.372;2023-07-29T13:15:42;3.50;;;3.20;;
15340;SDS011;7770;52.158;5.372;2023-07-29T13:18:28;3.60;;;3.30;;
15340;SDS011;7770;52.158;5.372;2023-07-29T13:21:14;3.50;;;3.20;;
15340;SDS011;7770;52.158;5.372;2023-07-29T13:24:00;3.60;;;3.30;;
15340;SDS011;7770;52.158;5.372;2023-07-29T13:26:46;3.60;;;3.23;;
15340;SDS011;7770;52.158;5.372;2023-07-29T13:29:32;3.17;;;2.87;;
15340;SDS011;7770;52.158;5.372;2023-07-29T13:32:18;2.93;;;2.73;;
15340;SDS011;7770;52.158;5.372;2023-07-29T13:35:04;4.60;;;3.00;;
15340;SDS011;7770;52.158;5.372;2023-07-29T13:37:51;3.47;;;3.17;;
15340;SDS011;7770;52.158;5.372;2023-07-29T13:40:37;3.10;;;2.90;;
15340;SDS011;7770;52.158;5.372;2023-07-29T13:43:23;4.00;;;3.40;;
15340;SDS011;7770;52.158;5.372;2023-07-29T13:46:09;3.30;;;3.10;;
15340;SDS011;7770;52.158;5.372;2023-07-29T13:48:55;4.10;;;3.53;;
15340;SDS011;7770;52.158;5.372;2023-07-29T13:51:41;4.23;;;3.77;;
15340;SDS011;7770;52.158;5.372;2023-07-29T13:54:28;3.80;;;3.50;;
15340;SDS011;7770;52.158;5.372;2023-07-29T13:57:14;3.37;;;3.07;;
15340;SDS011;7770;52.158;5.372;2023-07-29T14:00:00;3.83;;;3.53;;
15340;SDS011;7770;52.158;5.372;2023-07-29T14:02:46;3.97;;;3.57;;
15340;SDS011;7770;52.158;5.372;2023-07-29T14:05:32;3.90;;;3.47;;
15340;SDS011;7770;52.158;5.372;2023-07-29T14:08:18;4.83;;;3.70;;
15340;SDS011;7770;52.158;5.372;2023-07-29T14:11:04;4.20;;;3.80;;
15340;SDS011;7770;52.158;5.372;2023-07-29T14:13:50;4.07;;;3.70;;
15340;SDS011;7770;52.158;5.372;2023-07-29T14:16:36;3.70;;;3.30;;
15340;SDS011;7770;52.158;5.372;2023-07-29T14:19:22;3.63;;;3.33;;
15340;SDS011;7770;52.158;5.372;2023-07-29T14:22:09;3.43;;;3.13;;
15340;SDS011;7770;52.158;5.372;2023-07-29T14:24:55;3.90;;;3.30;;
15340;SDS011;7770;52.158;5.372;2023-07-29T14:27:41;3.20;;;2.93;;
15340;SDS011;7770;52.158;5.372;2023-07-29T14:30:27;4.27;;;2.90;;
15340;SDS011;7770;52.158;5.372;2023-07-29T14:33:13;4.40;;;2.80;;
15340;SDS011;7770;52.158;5.372;2023-07-29T14:36:00;3.20;;;2.53;;
15340;SDS011;7770;52.158;5.372;2023-07-29T14:38:46;3.03;;;2.50;;
15340;SDS011;7770;52.158;5.372;2023-07-29T14:41:32;2.70;;;2.40;;
15340;SDS011;7770;52.158;5.372;2023-07-29T14:44:18;3.70;;;2.60;;
15340;SDS011;7770;52.158;5.372;2023-07-29T14:47:04;3.20;;;2.40;;
15340;SDS011;7770;52.158;5.372;2023-07-29T14:49:50;3.17;;;2.30;;
15340;SDS011;7770;52.158;5.372;2023-07-29T14:52:36;2.83;;;2.30;;
15340;SDS011;7770;52.158;5.372;2023-07-29T14:55:22;3.13;;;2.50;;
15340;SDS011;7770;52.158;5.372;2023-07-29T14:58:08;2.40;;;2.20;;
15340;SDS011;7770;52.158;5.372;2023-07-29T15:00:54;2.80;;;2.40;;
15340;SDS011;7770;52.158;5.372;2023-07-29T15:03:40;4.00;;;2.50;;
15340;SDS011;7770;52.158;5.372;2023-07-29T15:06:26;2.87;;;2.40;;
15340;SDS011;7770;52.158;5.372;2023-07-29T15:09:12;2.50;;;2.30;;
15340;SDS011;7770;52.158;5.372;2023-07-29T15:11:58;2.77;;;2.30;;
15340;SDS011;7770;52.158;5.372;2023-07-29T15:14:44;3.30;;;2.27;;
15340;SDS011;7770;52.158;5.372;2023-07-29T15:17:32;2.87;;;2.57;;
15340;SDS011;7770;52.158;5.372;2023-07-29T15:20:18;2.97;;;2.30;;
15340;SDS011;7770;52.158;5.372;2023-07-29T15:23:04;3.37;;;2.10;;
15340;SDS011;7770;52.158;5.372;2023-07-29T15:25:50;3.13;;;2.30;;
15340;SDS011;7770;52.158;5.372;2023-07-29T15:28:36;2.90;;;2.40;;
15340;SDS011;7770;52.158;5.372;2023-07-29T15:31:22;3.27;;;2.97;;
15340;SDS011;7770;52.158;5.372;2023-07-29T15:34:08;3.40;;;2.60;;
15340;SDS011;7770;52.158;5.372;2023-07-29T15:36:54;3.03;;;2.73;;
15340;SDS011;7770;52.158;5.372;2023-07-29T15:39:41;2.90;;;2.70;;
15340;SDS011;7770;52.158;5.372;2023-07-29T15:42:27;4.17;;;2.87;;
15340;SDS011;7770;52.158;5.372;2023-07-29T15:45:13;2.87;;;2.60;;
15340;SDS011;7770;52.158;5.372;2023-07-29T15:47:59;3.73;;;2.70;;
15340;SDS011;7770;52.158;5.372;2023-07-29T15:50:45;4.03;;;3.60;;
15340;SDS011;7770;52.158;5.372;2023-07-29T15:53:31;3.87;;;2.90;;
15340;SDS011;7770;52.158;5.372;2023-07-29T15:56:17;3.63;;;2.70;;
15340;SDS011;7770;52.158;5.372;2023-07-29T15:59:03;2.70;;;2.40;;
15340;SDS011;7770;52.158;5.372;2023-07-29T16:01:49;4.10;;;2.50;;
15340;SDS011;7770;52.158;5.372;2023-07-29T16:04:35;4.27;;;2.70;;
15340;SDS011;7770;52.158;5.372;2023-07-29T16:07:21;3.57;;;2.77;;
15340;SDS011;7770;52.158;5.372;2023-07-29T16:10:08;3.10;;;2.80;;
15340;SDS011;7770;52.158;5.372;2023-07-29T16:12:54;3.70;;;2.87;;
15340;SDS011;7770;52.158;5.372;2023-07-29T16:15:40;3.10;;;2.80;;
15340;SDS011;7770;52.158;5.372;2023-07-29T16:18:26;3.20;;;2.90;;
15340;SDS011;7770;52.158;5.372;2023-07-29T16:21:12;3.37;;;3.00;;
15340;SDS011;7770;52.158;5.372;2023-07-29T16:23:58;3.73;;;2.97;;
15340;SDS011;7770;52.158;5.372;2023-07-29T16:26:44;2.90;;;2.70;;
15340;SDS011;7770;52.158;5.372;2023-07-29T16:29:30;4.20;;;2.97;;
15340;SDS011;7770;52.158;5.372;2023-07-29T16:32:16;3.87;;;3.03;;
15340;SDS011;7770;52.158;5.372;2023-07-29T16:35:02;3.90;;;3.10;;
15340;SDS011;7770;52.158;5.372;2023-07-29T16:37:49;3.70;;;3.10;;
15340;SDS011;7770;52.158;5.372;2023-07-29T16:40:37;3.60;;;3.27;;
15340;SDS011;7770;52.158;5.372;2023-07-29T16:43:23;3.83;;;3.53;;
15340;SDS011;7770;52.158;5.372;2023-07-29T16:46:09;5.13;;;3.20;;
15340;SDS011;7770;52.158;5.372;2023-07-29T16:48:55;4.40;;;3.30;;
15340;SDS011;7770;52.158;5.372;2023-07-29T16:51:42;3.97;;;3.60;;
15340;SDS011;7770;52.158;5.372;2023-07-29T16:54:29;5.03;;;4.00;;
15340;SDS011;7770;52.158;5.372;2023-07-29T16:57:15;5.10;;;4.27;;
15340;SDS011;7770;52.158;5.372;2023-07-29T17:00:01;4.10;;;3.70;;
15340;SDS011;7770;52.158;5.372;2023-07-29T17:02:48;5.23;;;4.40;;
15340;SDS011;7770;52.158;5.372;2023-07-29T17:05:34;7.10;;;6.50;;
15340;SDS011;7770;52.158;5.372;2023-07-29T17:08:20;5.03;;;4.20;;
15340;SDS011;7770;52.158;5.372;2023-07-29T17:11:06;10.07;;;9.07;;